sensor_id;sensor_type;location;lat;lon;timestamp;P1;durP1;ratioP1;P2;durP2;ratioP2
11921;SDS011;6021;51.182;3.160;2023-02-15T00:00:15;103.57;;;65.90;;
11921;SDS011;6021;51.182;3.160;2023-02-15T00:02:43;91.33;;;61.33;;
11921;SDS011;6021;51.182;3.160;2023-02-15T00:05:12;90.93;;;58.57;;
11921;SDS011;6021;51.182;3.160;2023-02-15T00:07:40;80.03;;;54.77;;
11921;SDS011;6021;51.182;3.160;2023-02-15T00:10:09;95.03;;;61.17;;
11921;SDS011;6021;51.182;3.160;2023-02-15T00:12:38;82.43;;;57.13;;
11921;SDS011;6021;51.182;3.160;2023-02-15T00:15:07;85.63;;;57.27;;
11921;SDS011;6021;51.182;3.160;2023-02-15T00:17:35;87.70;;;57.40;;
11921;SDS011;6021;51.182;3.160;2023-02-15T00:20:04;101.30;;;60.87;;
11921;SDS011;6021;51.182;3.160;2023-02-15T00:22:33;73.20;;;53.37;;
11921;SDS011;6021;51.182;3.160;2023-02-15T00:25:01;85.23;;;58.33;;
11921;SDS011;6021;51.182;3.160;2023-02-15T00:27:30;77.43;;;57.37;;
11921;SDS011;6021;51.182;3.160;2023-02-15T00:29:58;75.37;;;56.80;;
11921;SDS011;6021;51.182;3.160;2023-02-15T00:32:26;73.27;;;54.93;;
11921;SDS011;6021;51.182;3.160;2023-02-15T00:34:55;66.57;;;51.67;;
11921;SDS011;6021;51.182;3.160;2023-02-15T00:37:23;73.30;;;55.17;;
11921;SDS011;6021;51.182;3.160;2023-02-15T00:39:52;72.40;;;55.50;;
11921;SDS011;6021;51.182;3.160;2023-02-15T00:42:20;65.67;;;51.63;;
11921;SDS011;6021;51.182;3.160;2023-02-15T00:44:48;69.53;;;53.00;;
11921;SDS011;6021;51.182;3.160;2023-02-15T00:47:17;128.03;;;53.13;;
11921;SDS011;6021;51.182;3.160;2023-02-15T00:49:45;698.93;;;70.87;;
11921;SDS011;6021;51.182;3.160;2023-02-15T00:52:13;511.03;;;66.23;;
11921;SDS011;6021;51.182;3.160;2023-02-15T00:54:42;710.80;;;82.37;;
11921;SDS011;6021;51.182;3.160;2023-02-15T00:57:10;127.17;;;64.33;;
11921;SDS011;6021;51.182;3.160;2023-02-15T00:59:38;108.30;;;64.17;;
11921;SDS011;6021;51.182;3.160;2023-02-15T01:02:07;222.10;;;72.20;;
11921;SDS011;6021;51.182;3.160;2023-02-15T01:04:35;543.53;;;83.20;;
11921;SDS011;6021;51.182;3.160;2023-02-15T01:07:03;409.93;;;86.87;;
11921;SDS011;6021;51.182;3.160;2023-02-15T01:09:32;131.83;;;69.57;;
11921;SDS011;6021;51.182;3.160;2023-02-15T01:12:00;340.33;;;79.93;;
11921;SDS011;6021;51.182;3.160;2023-02-15T01:14:28;127.83;;;75.07;;
11921;SDS011;6021;51.182;3.160;2023-02-15T01:16:57;165.27;;;80.07;;
11921;SDS011;6021;51.182;3.160;2023-02-15T01:19:25;90.50;;;68.70;;
11921;SDS011;6021;51.182;3.160;2023-02-15T01:21:54;573.33;;;86.30;;
11921;SDS011;6021;51.182;3.160;2023-02-15T01:24:22;1440.70;;;118.60;;
11921;SDS011;6021;51.182;3.160;2023-02-15T01:26:51;182.87;;;80.63;;
11921;SDS011;6021;51.182;3.160;2023-02-15T01:29:19;137.57;;;82.70;;
11921;SDS011;6021;51.182;3.160;2023-02-15T01:31:47;157.10;;;85.17;;
11921;SDS011;6021;51.182;3.160;2023-02-15T01:34:16;207.77;;;81.13;;
11921;SDS011;6021;51.182;3.160;2023-02-15T01:36:44;1062.23;;;106.60;;
11921;SDS011;6021;51.182;3.160;2023-02-15T01:39:12;680.23;;;102.43;;
11921;SDS011;6021;51.182;3.160;2023-02-15T01:41:41;179.50;;;77.97;;
11921;SDS011;6021;51.182;3.160;2023-02-15T01:47:18;165.47;;;89.53;;
11921;SDS011;6021;51.182;3.160;2023-02-15T01:53:05;105.87;;;69.97;;
11921;SDS011;6021;51.182;3.160;2023-02-15T01:55:40;113.13;;;72.83;;
11921;SDS011;6021;51.182;3.160;2023-02-15T01:58:12;85.97;;;63.97;;
11921;SDS011;6021;51.182;3.160;2023-02-15T02:00:41;103.17;;;66.63;;
11921;SDS011;6021;51.182;3.160;2023-02-15T02:03:10;91.70;;;63.63;;
11921;SDS011;6021;51.182;3.160;2023-02-15T02:05:40;109.37;;;68.80;;
11921;SDS011;6021;51.182;3.160;2023-02-15T02:08:08;122.53;;;72.03;;
11921;SDS011;6021;51.182;3.160;2023-02-15T02:10:38;89.83;;;62.27;;
11921;SDS011;6021;51.182;3.160;2023-02-15T02:13:06;92.13;;;63.80;;
11921;SDS011;6021;51.182;3.160;2023-02-15T02:15:47;107.07;;;67.47;;
11921;SDS011;6021;51.182;3.160;2023-02-15T02:18:19;103.03;;;68.03;;
11921;SDS011;6021;51.182;3.160;2023-02-15T02:21:02;96.33;;;65.73;;
11921;SDS011;6021;51.182;3.160;2023-02-15T02:23:36;110.63;;;70.07;;
11921;SDS011;6021;51.182;3.160;2023-02-15T02:26:46;130.30;;;73.87;;
11921;SDS011;6021;51.182;3.160;2023-02-15T02:29:03;141.57;;;78.43;;
11921;SDS011;6021;51.182;3.160;2023-02-15T02:34:29;118.67;;;69.27;;
11921;SDS011;6021;51.182;3.160;2023-02-15T02:37:07;147.33;;;78.93;;
11921;SDS011;6021;51.182;3.160;2023-02-15T02:39:40;124.73;;;75.13;;
11921;SDS011;6021;51.182;3.160;2023-02-15T02:44:44;156.77;;;83.03;;
11921;SDS011;6021;51.182;3.160;2023-02-15T02:47:27;127.10;;;72.13;;
11921;SDS011;6021;51.182;3.160;2023-02-15T02:49:58;133.57;;;71.73;;
11921;SDS011;6021;51.182;3.160;2023-02-15T02:55:10;241.37;;;87.30;;
11921;SDS011;6021;51.182;3.160;2023-02-15T03:00:46;237.90;;;88.97;;
11921;SDS011;6021;51.182;3.160;2023-02-15T03:05:54;163.50;;;69.43;;
11921;SDS011;6021;51.182;3.160;2023-02-15T03:08:25;266.93;;;76.20;;
11921;SDS011;6021;51.182;3.160;2023-02-15T03:10:57;225.23;;;84.83;;
11921;SDS011;6021;51.182;3.160;2023-02-15T03:13:27;228.20;;;86.40;;
11921;SDS011;6021;51.182;3.160;2023-02-15T03:15:56;295.97;;;82.97;;
11921;SDS011;6021;51.182;3.160;2023-02-15T03:18:47;419.17;;;93.57;;
11921;SDS011;6021;51.182;3.160;2023-02-15T03:21:20;199.77;;;75.83;;
11921;SDS011;6021;51.182;3.160;2023-02-15T03:23:52;952.80;;;95.80;;
11921;SDS011;6021;51.182;3.160;2023-02-15T03:26:22;388.60;;;76.53;;
11921;SDS011;6021;51.182;3.160;2023-02-15T03:28:53;379.43;;;81.33;;
11921;SDS011;6021;51.182;3.160;2023-02-15T03:31:23;186.87;;;67.97;;
11921;SDS011;6021;51.182;3.160;2023-02-15T03:33:57;136.93;;;74.03;;
11921;SDS011;6021;51.182;3.160;2023-02-15T03:36:32;147.47;;;77.93;;
11921;SDS011;6021;51.182;3.160;2023-02-15T03:41:54;153.40;;;69.60;;
11921;SDS011;6021;51.182;3.160;2023-02-15T03:44:28;126.70;;;71.50;;
11921;SDS011;6021;51.182;3.160;2023-02-15T03:47:05;153.97;;;75.00;;
11921;SDS011;6021;51.182;3.160;2023-02-15T03:49:41;172.07;;;75.47;;
11921;SDS011;6021;51.182;3.160;2023-02-15T03:52:13;111.10;;;67.80;;
11921;SDS011;6021;51.182;3.160;2023-02-15T03:54:43;164.67;;;79.07;;
11921;SDS011;6021;51.182;3.160;2023-02-15T03:57:19;191.43;;;80.83;;
11921;SDS011;6021;51.182;3.160;2023-02-15T04:00:16;170.33;;;84.13;;
11921;SDS011;6021;51.182;3.160;2023-02-15T04:03:09;199.20;;;87.97;;
11921;SDS011;6021;51.182;3.160;2023-02-15T04:05:38;135.47;;;74.17;;
11921;SDS011;6021;51.182;3.160;2023-02-15T04:08:07;193.23;;;84.13;;
11921;SDS011;6021;51.182;3.160;2023-02-15T04:10:37;160.10;;;78.93;;
11921;SDS011;6021;51.182;3.160;2023-02-15T04:13:22;121.70;;;70.43;;
11921;SDS011;6021;51.182;3.160;2023-02-15T04:15:53;160.07;;;77.97;;
11921;SDS011;6021;51.182;3.160;2023-02-15T04:18:32;130.03;;;72.47;;
11921;SDS011;6021;51.182;3.160;2023-02-15T04:21:23;153.57;;;76.50;;
11921;SDS011;6021;51.182;3.160;2023-02-15T04:24:10;169.20;;;82.83;;
11921;SDS011;6021;51.182;3.160;2023-02-15T04:26:57;160.27;;;80.67;;
11921;SDS011;6021;51.182;3.160;2023-02-15T04:29:26;139.50;;;74.77;;
11921;SDS011;6021;51.182;3.160;2023-02-15T04:31:56;186.50;;;92.13;;
11921;SDS011;6021;51.182;3.160;2023-02-15T04:34:26;148.93;;;81.73;;
11921;SDS011;6021;51.182;3.160;2023-02-15T04:36:54;213.17;;;93.60;;
11921;SDS011;6021;51.182;3.160;2023-02-15T04:39:23;168.50;;;87.53;;
11921;SDS011;6021;51.182;3.160;2023-02-15T04:41:51;168.23;;;84.60;;
11921;SDS011;6021;51.182;3.160;2023-02-15T04:44:19;150.97;;;82.07;;
11921;SDS011;6021;51.182;3.160;2023-02-15T04:46:48;111.87;;;71.23;;
11921;SDS011;6021;51.182;3.160;2023-02-15T04:49:17;110.77;;;69.43;;
11921;SDS011;6021;51.182;3.160;2023-02-15T04:51:45;158.37;;;83.83;;
11921;SDS011;6021;51.182;3.160;2023-02-15T04:54:13;115.20;;;70.60;;
11921;SDS011;6021;51.182;3.160;2023-02-15T04:56:42;159.90;;;82.60;;
11921;SDS011;6021;51.182;3.160;2023-02-15T04:59:10;106.30;;;67.97;;
11921;SDS011;6021;51.182;3.160;2023-02-15T05:01:39;140.93;;;77.10;;
11921;SDS011;6021;51.182;3.160;2023-02-15T05:04:08;107.07;;;69.93;;
11921;SDS011;6021;51.182;3.160;2023-02-15T05:06:36;111.00;;;69.93;;
11921;SDS011;6021;51.182;3.160;2023-02-15T05:09:04;104.63;;;66.80;;
11921;SDS011;6021;51.182;3.160;2023-02-15T05:11:33;123.90;;;68.40;;
11921;SDS011;6021;51.182;3.160;2023-02-15T05:14:01;112.63;;;65.57;;
11921;SDS011;6021;51.182;3.160;2023-02-15T05:16:30;96.80;;;63.23;;
11921;SDS011;6021;51.182;3.160;2023-02-15T05:18:58;98.00;;;61.27;;
11921;SDS011;6021;51.182;3.160;2023-02-15T05:21:27;83.40;;;54.20;;
11921;SDS011;6021;51.182;3.160;2023-02-15T05:23:55;84.20;;;54.83;;
11921;SDS011;6021;51.182;3.160;2023-02-15T05:26:24;87.07;;;56.87;;
11921;SDS011;6021;51.182;3.160;2023-02-15T05:29:10;102.20;;;62.30;;
11921;SDS011;6021;51.182;3.160;2023-02-15T05:31:38;90.97;;;61.40;;
11921;SDS011;6021;51.182;3.160;2023-02-15T05:34:07;84.67;;;57.53;;
11921;SDS011;6021;51.182;3.160;2023-02-15T05:36:35;83.47;;;56.50;;
11921;SDS011;6021;51.182;3.160;2023-02-15T05:39:04;84.23;;;57.40;;
11921;SDS011;6021;51.182;3.160;2023-02-15T05:41:33;85.60;;;56.90;;
11921;SDS011;6021;51.182;3.160;2023-02-15T05:44:01;81.60;;;54.70;;
11921;SDS011;6021;51.182;3.160;2023-02-15T05:46:30;71.73;;;51.03;;
11921;SDS011;6021;51.182;3.160;2023-02-15T05:48:58;75.83;;;53.33;;
11921;SDS011;6021;51.182;3.160;2023-02-15T05:51:27;80.00;;;54.97;;
11921;SDS011;6021;51.182;3.160;2023-02-15T05:53:55;81.83;;;54.97;;
11921;SDS011;6021;51.182;3.160;2023-02-15T05:56:23;71.77;;;50.73;;
11921;SDS011;6021;51.182;3.160;2023-02-15T05:58:52;66.37;;;48.30;;
11921;SDS011;6021;51.182;3.160;2023-02-15T06:01:21;66.40;;;49.73;;
11921;SDS011;6021;51.182;3.160;2023-02-15T06:03:49;80.67;;;54.03;;
11921;SDS011;6021;51.182;3.160;2023-02-15T06:06:18;79.80;;;54.13;;
11921;SDS011;6021;51.182;3.160;2023-02-15T06:08:47;81.50;;;53.33;;
11921;SDS011;6021;51.182;3.160;2023-02-15T06:11:15;74.53;;;52.47;;
11921;SDS011;6021;51.182;3.160;2023-02-15T06:13:43;70.73;;;51.27;;
11921;SDS011;6021;51.182;3.160;2023-02-15T06:16:12;74.10;;;52.83;;
11921;SDS011;6021;51.182;3.160;2023-02-15T06:18:42;68.13;;;50.20;;
11921;SDS011;6021;51.182;3.160;2023-02-15T06:21:10;68.07;;;48.73;;
11921;SDS011;6021;51.182;3.160;2023-02-15T06:23:39;68.63;;;49.27;;
11921;SDS011;6021;51.182;3.160;2023-02-15T06:26:07;69.40;;;48.90;;
11921;SDS011;6021;51.182;3.160;2023-02-15T06:28:36;68.50;;;51.53;;
11921;SDS011;6021;51.182;3.160;2023-02-15T06:31:04;78.33;;;52.33;;
11921;SDS011;6021;51.182;3.160;2023-02-15T06:33:32;74.10;;;52.40;;
11921;SDS011;6021;51.182;3.160;2023-02-15T06:36:01;73.90;;;54.30;;
11921;SDS011;6021;51.182;3.160;2023-02-15T06:38:30;75.70;;;54.17;;
11921;SDS011;6021;51.182;3.160;2023-02-15T06:40:58;73.33;;;53.17;;
11921;SDS011;6021;51.182;3.160;2023-02-15T06:43:27;77.03;;;53.70;;
11921;SDS011;6021;51.182;3.160;2023-02-15T06:45:55;73.60;;;53.67;;
11921;SDS011;6021;51.182;3.160;2023-02-15T06:48:23;76.93;;;52.63;;
11921;SDS011;6021;51.182;3.160;2023-02-15T06:50:52;71.90;;;50.57;;
11921;SDS011;6021;51.182;3.160;2023-02-15T06:53:21;71.13;;;50.53;;
11921;SDS011;6021;51.182;3.160;2023-02-15T06:55:51;70.63;;;50.50;;
11921;SDS011;6021;51.182;3.160;2023-02-15T06:58:35;67.77;;;50.27;;
11921;SDS011;6021;51.182;3.160;2023-02-15T07:01:08;63.33;;;46.93;;
11921;SDS011;6021;51.182;3.160;2023-02-15T07:03:48;68.40;;;47.90;;
11921;SDS011;6021;51.182;3.160;2023-02-15T07:06:22;66.13;;;47.97;;
11921;SDS011;6021;51.182;3.160;2023-02-15T07:08:48;61.70;;;47.33;;
11921;SDS011;6021;51.182;3.160;2023-02-15T07:11:28;63.77;;;47.83;;
11921;SDS011;6021;51.182;3.160;2023-02-15T07:14:15;66.43;;;46.47;;
11921;SDS011;6021;51.182;3.160;2023-02-15T07:16:43;64.37;;;46.27;;
11921;SDS011;6021;51.182;3.160;2023-02-15T07:19:12;69.90;;;48.03;;
11921;SDS011;6021;51.182;3.160;2023-02-15T07:21:40;65.50;;;46.80;;
11921;SDS011;6021;51.182;3.160;2023-02-15T07:24:10;64.47;;;47.20;;
11921;SDS011;6021;51.182;3.160;2023-02-15T07:26:39;63.00;;;47.37;;
11921;SDS011;6021;51.182;3.160;2023-02-15T07:29:10;64.67;;;46.37;;
11921;SDS011;6021;51.182;3.160;2023-02-15T07:31:38;64.03;;;47.33;;
11921;SDS011;6021;51.182;3.160;2023-02-15T07:34:10;63.07;;;46.30;;
11921;SDS011;6021;51.182;3.160;2023-02-15T07:36:39;64.03;;;47.17;;
11921;SDS011;6021;51.182;3.160;2023-02-15T07:39:21;65.33;;;47.17;;
11921;SDS011;6021;51.182;3.160;2023-02-15T07:41:37;60.13;;;46.40;;
11921;SDS011;6021;51.182;3.160;2023-02-15T07:44:06;61.03;;;44.00;;
11921;SDS011;6021;51.182;3.160;2023-02-15T07:46:41;61.67;;;43.67;;
11921;SDS011;6021;51.182;3.160;2023-02-15T07:49:09;56.80;;;43.30;;
11921;SDS011;6021;51.182;3.160;2023-02-15T07:51:37;59.17;;;43.70;;
11921;SDS011;6021;51.182;3.160;2023-02-15T07:54:07;59.27;;;44.87;;
11921;SDS011;6021;51.182;3.160;2023-02-15T07:56:35;59.33;;;43.40;;
11921;SDS011;6021;51.182;3.160;2023-02-15T07:59:04;54.90;;;42.33;;
11921;SDS011;6021;51.182;3.160;2023-02-15T08:01:35;56.27;;;41.97;;
11921;SDS011;6021;51.182;3.160;2023-02-15T08:04:07;55.07;;;40.97;;
11921;SDS011;6021;51.182;3.160;2023-02-15T08:06:37;58.37;;;42.17;;
11921;SDS011;6021;51.182;3.160;2023-02-15T08:09:07;59.37;;;43.23;;
11921;SDS011;6021;51.182;3.160;2023-02-15T08:11:37;53.10;;;42.57;;
11921;SDS011;6021;51.182;3.160;2023-02-15T08:14:10;57.53;;;41.50;;
11921;SDS011;6021;51.182;3.160;2023-02-15T08:16:40;55.83;;;42.20;;
11921;SDS011;6021;51.182;3.160;2023-02-15T08:19:11;53.67;;;41.50;;
11921;SDS011;6021;51.182;3.160;2023-02-15T08:21:48;53.90;;;41.77;;
11921;SDS011;6021;51.182;3.160;2023-02-15T08:24:27;54.97;;;41.20;;
11921;SDS011;6021;51.182;3.160;2023-02-15T08:26:57;52.10;;;40.33;;
11921;SDS011;6021;51.182;3.160;2023-02-15T08:29:26;54.47;;;41.07;;
11921;SDS011;6021;51.182;3.160;2023-02-15T08:32:04;53.70;;;39.83;;
11921;SDS011;6021;51.182;3.160;2023-02-15T08:34:31;49.13;;;39.07;;
11921;SDS011;6021;51.182;3.160;2023-02-15T08:37:01;51.20;;;39.93;;
11921;SDS011;6021;51.182;3.160;2023-02-15T08:39:29;49.67;;;39.13;;
11921;SDS011;6021;51.182;3.160;2023-02-15T08:41:57;50.80;;;39.37;;
11921;SDS011;6021;51.182;3.160;2023-02-15T08:44:26;52.57;;;38.33;;
11921;SDS011;6021;51.182;3.160;2023-02-15T08:46:54;45.37;;;37.30;;
11921;SDS011;6021;51.182;3.160;2023-02-15T08:49:24;50.53;;;38.07;;
11921;SDS011;6021;51.182;3.160;2023-02-15T08:51:53;52.57;;;39.43;;
11921;SDS011;6021;51.182;3.160;2023-02-15T08:54:21;49.23;;;37.83;;
11921;SDS011;6021;51.182;3.160;2023-02-15T08:56:49;48.73;;;37.93;;
11921;SDS011;6021;51.182;3.160;2023-02-15T08:59:24;47.47;;;37.40;;
11921;SDS011;6021;51.182;3.160;2023-02-15T09:01:53;47.73;;;37.90;;
11921;SDS011;6021;51.182;3.160;2023-02-15T09:04:22;49.70;;;38.03;;
11921;SDS011;6021;51.182;3.160;2023-02-15T09:06:50;50.07;;;37.93;;
11921;SDS011;6021;51.182;3.160;2023-02-15T09:09:19;51.97;;;39.23;;
11921;SDS011;6021;51.182;3.160;2023-02-15T09:11:49;50.67;;;38.03;;
11921;SDS011;6021;51.182;3.160;2023-02-15T09:14:19;50.67;;;38.63;;
11921;SDS011;6021;51.182;3.160;2023-02-15T09:16:51;55.37;;;37.83;;
11921;SDS011;6021;51.182;3.160;2023-02-15T09:19:20;47.90;;;38.63;;
11921;SDS011;6021;51.182;3.160;2023-02-15T09:21:50;47.23;;;38.23;;
11921;SDS011;6021;51.182;3.160;2023-02-15T09:24:18;46.23;;;30.87;;
11921;SDS011;6021;51.182;3.160;2023-02-15T09:26:49;48.40;;;38.17;;
11921;SDS011;6021;51.182;3.160;2023-02-15T09:29:18;47.20;;;37.67;;
11921;SDS011;6021;51.182;3.160;2023-02-15T09:31:48;48.90;;;39.13;;
11921;SDS011;6021;51.182;3.160;2023-02-15T09:34:18;48.33;;;36.43;;
11921;SDS011;6021;51.182;3.160;2023-02-15T09:36:48;45.17;;;30.87;;
11921;SDS011;6021;51.182;3.160;2023-02-15T09:39:18;44.73;;;37.60;;
11921;SDS011;6021;51.182;3.160;2023-02-15T09:50:43;47.23;;;37.03;;
11921;SDS011;6021;51.182;3.160;2023-02-15T09:53:20;42.13;;;35.67;;
11921;SDS011;6021;51.182;3.160;2023-02-15T09:55:56;47.03;;;36.83;;
11921;SDS011;6021;51.182;3.160;2023-02-15T10:04:32;45.83;;;29.93;;
11921;SDS011;6021;51.182;3.160;2023-02-15T10:07:19;40.23;;;28.73;;
11921;SDS011;6021;51.182;3.160;2023-02-15T10:10:11;42.43;;;28.63;;
11921;SDS011;6021;51.182;3.160;2023-02-15T10:13:12;41.10;;;27.70;;
11921;SDS011;6021;51.182;3.160;2023-02-15T10:16:00;41.37;;;29.07;;
11921;SDS011;6021;51.182;3.160;2023-02-15T10:18:46;39.27;;;27.87;;
11921;SDS011;6021;51.182;3.160;2023-02-15T10:21:27;41.93;;;28.50;;
11921;SDS011;6021;51.182;3.160;2023-02-15T10:24:15;39.73;;;27.77;;
11921;SDS011;6021;51.182;3.160;2023-02-15T10:26:49;40.63;;;28.43;;
11921;SDS011;6021;51.182;3.160;2023-02-15T10:29:27;43.00;;;28.53;;
11921;SDS011;6021;51.182;3.160;2023-02-15T10:34:39;44.10;;;27.20;;
11921;SDS011;6021;51.182;3.160;2023-02-15T10:39:54;41.87;;;28.07;;
11921;SDS011;6021;51.182;3.160;2023-02-15T10:42:30;38.93;;;28.10;;
11921;SDS011;6021;51.182;3.160;2023-02-15T10:45:17;36.87;;;27.13;;
11921;SDS011;6021;51.182;3.160;2023-02-15T10:50:57;38.77;;;30.30;;
11921;SDS011;6021;51.182;3.160;2023-02-15T10:56:18;37.97;;;28.90;;
11921;SDS011;6021;51.182;3.160;2023-02-15T10:59:13;35.87;;;29.97;;
11921;SDS011;6021;51.182;3.160;2023-02-15T11:04:27;35.93;;;27.83;;
11921;SDS011;6021;51.182;3.160;2023-02-15T11:06:55;36.37;;;27.73;;
11921;SDS011;6021;51.182;3.160;2023-02-15T11:09:28;37.67;;;30.33;;
11921;SDS011;6021;51.182;3.160;2023-02-15T11:11:57;36.77;;;27.33;;
11921;SDS011;6021;51.182;3.160;2023-02-15T11:17:22;38.30;;;29.73;;
11921;SDS011;6021;51.182;3.160;2023-02-15T11:22:30;38.20;;;30.63;;
11921;SDS011;6021;51.182;3.160;2023-02-15T11:25:00;36.17;;;29.63;;
11921;SDS011;6021;51.182;3.160;2023-02-15T11:27:31;37.00;;;29.20;;
11921;SDS011;6021;51.182;3.160;2023-02-15T11:30:04;36.00;;;30.67;;
11921;SDS011;6021;51.182;3.160;2023-02-15T11:32:40;40.73;;;30.83;;
11921;SDS011;6021;51.182;3.160;2023-02-15T11:37:45;39.13;;;28.60;;
11921;SDS011;6021;51.182;3.160;2023-02-15T11:40:17;37.63;;;30.03;;
11921;SDS011;6021;51.182;3.160;2023-02-15T11:42:47;35.60;;;28.03;;
11921;SDS011;6021;51.182;3.160;2023-02-15T11:45:29;34.67;;;26.80;;
11921;SDS011;6021;51.182;3.160;2023-02-15T11:48:00;36.27;;;27.57;;
11921;SDS011;6021;51.182;3.160;2023-02-15T11:50:31;36.37;;;26.23;;
11921;SDS011;6021;51.182;3.160;2023-02-15T11:53:10;36.47;;;25.87;;
11921;SDS011;6021;51.182;3.160;2023-02-15T11:55:44;34.53;;;25.90;;
11921;SDS011;6021;51.182;3.160;2023-02-15T12:00:56;35.90;;;27.47;;
11921;SDS011;6021;51.182;3.160;2023-02-15T12:06:33;35.47;;;27.50;;
11921;SDS011;6021;51.182;3.160;2023-02-15T12:08:51;38.37;;;29.07;;
11921;SDS011;6021;51.182;3.160;2023-02-15T12:11:22;38.03;;;27.73;;
11921;SDS011;6021;51.182;3.160;2023-02-15T12:14:01;37.07;;;27.13;;
11921;SDS011;6021;51.182;3.160;2023-02-15T12:16:50;35.77;;;27.77;;
11921;SDS011;6021;51.182;3.160;2023-02-15T12:19:27;37.10;;;26.70;;
11921;SDS011;6021;51.182;3.160;2023-02-15T12:21:55;34.93;;;29.33;;
11921;SDS011;6021;51.182;3.160;2023-02-15T12:24:34;34.60;;;29.87;;
11921;SDS011;6021;51.182;3.160;2023-02-15T12:27:01;34.77;;;26.33;;
11921;SDS011;6021;51.182;3.160;2023-02-15T12:29:34;32.73;;;27.23;;
11921;SDS011;6021;51.182;3.160;2023-02-15T12:32:02;31.83;;;27.33;;
11921;SDS011;6021;51.182;3.160;2023-02-15T12:34:35;30.93;;;25.83;;
11921;SDS011;6021;51.182;3.160;2023-02-15T12:37:14;35.93;;;28.80;;
11921;SDS011;6021;51.182;3.160;2023-02-15T12:40:28;35.00;;;26.80;;
11921;SDS011;6021;51.182;3.160;2023-02-15T12:42:24;30.57;;;26.20;;
11921;SDS011;6021;51.182;3.160;2023-02-15T12:45:08;31.27;;;25.90;;
11921;SDS011;6021;51.182;3.160;2023-02-15T12:47:30;31.13;;;25.00;;
11921;SDS011;6021;51.182;3.160;2023-02-15T12:50:06;32.33;;;25.60;;
11921;SDS011;6021;51.182;3.160;2023-02-15T12:52:45;29.03;;;24.80;;
11921;SDS011;6021;51.182;3.160;2023-02-15T12:55:19;30.17;;;25.07;;
11921;SDS011;6021;51.182;3.160;2023-02-15T12:57:58;27.17;;;23.97;;
11921;SDS011;6021;51.182;3.160;2023-02-15T13:00:37;30.33;;;25.33;;
11921;SDS011;6021;51.182;3.160;2023-02-15T13:03:14;30.40;;;25.70;;
11921;SDS011;6021;51.182;3.160;2023-02-15T13:05:37;28.80;;;23.87;;
11921;SDS011;6021;51.182;3.160;2023-02-15T13:10:58;29.60;;;24.93;;
11921;SDS011;6021;51.182;3.160;2023-02-15T13:13:32;29.33;;;24.20;;
11921;SDS011;6021;51.182;3.160;2023-02-15T13:16:07;26.80;;;21.73;;
11921;SDS011;6021;51.182;3.160;2023-02-15T13:18:35;27.90;;;21.30;;
11921;SDS011;6021;51.182;3.160;2023-02-15T13:21:12;27.87;;;21.77;;
11921;SDS011;6021;51.182;3.160;2023-02-15T13:23:44;29.73;;;23.07;;
11921;SDS011;6021;51.182;3.160;2023-02-15T13:26:15;28.73;;;23.70;;
11921;SDS011;6021;51.182;3.160;2023-02-15T13:28:50;27.63;;;21.67;;
11921;SDS011;6021;51.182;3.160;2023-02-15T13:31:23;30.13;;;23.10;;
11921;SDS011;6021;51.182;3.160;2023-02-15T13:34:07;27.03;;;20.87;;
11921;SDS011;6021;51.182;3.160;2023-02-15T13:36:38;25.20;;;21.43;;
11921;SDS011;6021;51.182;3.160;2023-02-15T13:39:13;29.60;;;23.00;;
11921;SDS011;6021;51.182;3.160;2023-02-15T13:41:47;28.60;;;22.57;;
11921;SDS011;6021;51.182;3.160;2023-02-15T13:44:34;30.53;;;24.37;;
11921;SDS011;6021;51.182;3.160;2023-02-15T13:47:28;28.07;;;22.60;;
11921;SDS011;6021;51.182;3.160;2023-02-15T13:50:10;28.70;;;23.67;;
11921;SDS011;6021;51.182;3.160;2023-02-15T13:58:30;33.27;;;23.93;;
11921;SDS011;6021;51.182;3.160;2023-02-15T14:01:09;31.83;;;24.20;;
11921;SDS011;6021;51.182;3.160;2023-02-15T14:14:28;34.07;;;24.97;;
11921;SDS011;6021;51.182;3.160;2023-02-15T14:17:28;32.27;;;25.27;;
11921;SDS011;6021;51.182;3.160;2023-02-15T14:20:05;32.07;;;25.17;;
11921;SDS011;6021;51.182;3.160;2023-02-15T14:25:23;30.37;;;24.20;;
11921;SDS011;6021;51.182;3.160;2023-02-15T14:28:04;34.17;;;24.00;;
11921;SDS011;6021;51.182;3.160;2023-02-15T14:30:42;34.80;;;24.87;;
11921;SDS011;6021;51.182;3.160;2023-02-15T14:36:07;31.50;;;24.10;;
11921;SDS011;6021;51.182;3.160;2023-02-15T14:41:23;31.83;;;22.97;;
11921;SDS011;6021;51.182;3.160;2023-02-15T14:44:04;31.83;;;23.83;;
11921;SDS011;6021;51.182;3.160;2023-02-15T14:49:39;31.57;;;23.43;;
11921;SDS011;6021;51.182;3.160;2023-02-15T14:52:08;32.30;;;23.57;;
11921;SDS011;6021;51.182;3.160;2023-02-15T14:59:55;31.37;;;23.77;;
11921;SDS011;6021;51.182;3.160;2023-02-15T15:05:16;31.57;;;23.17;;
11921;SDS011;6021;51.182;3.160;2023-02-15T15:07:46;34.93;;;25.67;;
11921;SDS011;6021;51.182;3.160;2023-02-15T15:12:52;34.43;;;24.07;;
11921;SDS011;6021;51.182;3.160;2023-02-15T15:18:06;34.63;;;25.37;;
11921;SDS011;6021;51.182;3.160;2023-02-15T15:20:37;35.10;;;24.23;;
11921;SDS011;6021;51.182;3.160;2023-02-15T15:26:31;33.93;;;25.53;;
11921;SDS011;6021;51.182;3.160;2023-02-15T15:31:18;37.13;;;26.37;;
11921;SDS011;6021;51.182;3.160;2023-02-15T15:45:17;40.77;;;26.90;;
11921;SDS011;6021;51.182;3.160;2023-02-15T15:50:40;34.77;;;25.97;;
11921;SDS011;6021;51.182;3.160;2023-02-15T15:53:21;34.03;;;25.87;;
11921;SDS011;6021;51.182;3.160;2023-02-15T15:55:47;39.73;;;26.23;;
11921;SDS011;6021;51.182;3.160;2023-02-15T15:58:17;41.80;;;26.13;;
11921;SDS011;6021;51.182;3.160;2023-02-15T16:00:48;34.73;;;26.17;;
11921;SDS011;6021;51.182;3.160;2023-02-15T16:03:22;35.03;;;25.23;;
11921;SDS011;6021;51.182;3.160;2023-02-15T16:05:52;38.07;;;26.83;;
11921;SDS011;6021;51.182;3.160;2023-02-15T16:08:31;39.87;;;27.27;;
11921;SDS011;6021;51.182;3.160;2023-02-15T16:10:56;39.20;;;26.80;;
11921;SDS011;6021;51.182;3.160;2023-02-15T16:13:26;32.63;;;24.60;;
11921;SDS011;6021;51.182;3.160;2023-02-15T16:15:55;35.73;;;24.60;;
11921;SDS011;6021;51.182;3.160;2023-02-15T16:18:25;36.90;;;25.87;;
11921;SDS011;6021;51.182;3.160;2023-02-15T16:20:55;33.57;;;25.17;;
11921;SDS011;6021;51.182;3.160;2023-02-15T16:26:12;35.10;;;25.93;;
11921;SDS011;6021;51.182;3.160;2023-02-15T16:28:58;37.40;;;25.00;;
11921;SDS011;6021;51.182;3.160;2023-02-15T16:31:27;34.10;;;24.67;;
11921;SDS011;6021;51.182;3.160;2023-02-15T16:33:56;39.03;;;26.13;;
11921;SDS011;6021;51.182;3.160;2023-02-15T16:36:25;34.73;;;23.53;;
11921;SDS011;6021;51.182;3.160;2023-02-15T16:41:28;35.27;;;24.43;;
11921;SDS011;6021;51.182;3.160;2023-02-15T16:43:58;33.17;;;24.20;;
11921;SDS011;6021;51.182;3.160;2023-02-15T16:46:32;31.57;;;23.80;;
11921;SDS011;6021;51.182;3.160;2023-02-15T16:49:04;41.40;;;25.07;;
11921;SDS011;6021;51.182;3.160;2023-02-15T16:51:34;33.60;;;23.20;;
11921;SDS011;6021;51.182;3.160;2023-02-15T16:54:05;37.20;;;24.30;;
11921;SDS011;6021;51.182;3.160;2023-02-15T16:56:34;33.80;;;24.53;;
11921;SDS011;6021;51.182;3.160;2023-02-15T16:59:03;31.53;;;22.83;;
11921;SDS011;6021;51.182;3.160;2023-02-15T17:01:31;32.83;;;23.00;;
11921;SDS011;6021;51.182;3.160;2023-02-15T17:06:57;34.80;;;23.47;;
11921;SDS011;6021;51.182;3.160;2023-02-15T17:09:32;36.87;;;23.97;;
11921;SDS011;6021;51.182;3.160;2023-02-15T17:12:01;32.77;;;23.03;;
11921;SDS011;6021;51.182;3.160;2023-02-15T17:14:30;36.87;;;22.33;;
11921;SDS011;6021;51.182;3.160;2023-02-15T17:16:59;33.83;;;23.03;;